createdAt,value
2022-12-07T00:00:38.132Z,21
2022-12-07T00:01:41.112Z,21
2022-12-07T00:02:43.468Z,21
2022-12-07T00:03:46.298Z,21
2022-12-07T00:04:48.980Z,21
2022-12-07T00:05:51.457Z,21
2022-12-07T00:06:53.693Z,21
2022-12-07T00:07:56.027Z,21
2022-12-07T00:08:58.739Z,21
2022-12-07T00:10:02.112Z,21.1
2022-12-07T00:11:05.637Z,21.1
2022-12-07T00:12:08.113Z,21.1
2022-12-07T00:13:10.622Z,21.1
2022-12-07T00:14:12.830Z,21.1
2022-12-07T00:15:15.076Z,21.1
2022-12-07T00:16:17.747Z,21.1
2022-12-07T00:17:20.204Z,21.1
2022-12-07T00:18:22.724Z,21.1
2022-12-07T00:19:25.280Z,21.2
2022-12-07T00:20:27.769Z,21.2
2022-12-07T00:21:30.235Z,21.2
2022-12-07T00:22:32.164Z,21.2
2022-12-07T00:23:34.427Z,21.2
2022-12-07T00:24:36.913Z,21.2
2022-12-07T00:25:39.401Z,21.2
2022-12-07T00:26:41.877Z,21.2
2022-12-07T00:27:44.341Z,21.2
2022-12-07T00:28:46.522Z,21.2
2022-12-07T00:29:48.996Z,21.2
2022-12-07T00:30:51.564Z,21.2
2022-12-07T00:31:53.744Z,21.2
2022-12-07T00:32:56.454Z,21.2
2022-12-07T00:33:58.964Z,21.2
2022-12-07T00:35:01.504Z,21.2
2022-12-07T00:36:03.738Z,21.2
2022-12-07T00:37:05.930Z,21.2
2022-12-07T00:38:08.131Z,21.3
2022-12-07T00:39:10.643Z,21.3
2022-12-07T00:40:13.130Z,21.3
2022-12-07T00:41:15.320Z,21.3
2022-12-07T00:42:17.506Z,21.3
2022-12-07T00:43:19.716Z,21.3
2022-12-07T00:44:22.195Z,21.3
2022-12-07T00:45:24.417Z,21.3
2022-12-07T00:46:27.221Z,21.3
2022-12-07T00:47:29.648Z,21.3
2022-12-07T00:48:31.551Z,21.3
2022-12-07T00:49:34.072Z,21.3
2022-12-07T00:50:36.601Z,21.3
2022-12-07T00:51:38.790Z,21.3
2022-12-07T00:52:40.992Z,21.3
2022-12-07T00:53:43.478Z,21.3
2022-12-07T00:54:45.956Z,21.3
2022-12-07T00:55:48.431Z,21.3
2022-12-07T00:56:50.636Z,21.3
2022-12-07T00:57:53.129Z,21.3
2022-12-07T00:58:55.382Z,21.3
2022-12-07T00:59:57.924Z,21.3
2022-12-07T01:01:01.361Z,21.3
2022-12-07T01:02:03.464Z,21.3
2022-12-07T01:03:05.821Z,21.4
2022-12-07T01:04:08.116Z,21.4
2022-12-07T01:05:10.383Z,21.4
2022-12-07T01:06:12.938Z,21.4
2022-12-07T01:07:15.135Z,21.4
2022-12-07T01:08:17.228Z,21.4
2022-12-07T01:09:19.941Z,21.4
2022-12-07T01:10:22.424Z,21.4
2022-12-07T01:11:24.906Z,21.4
2022-12-07T01:12:27.107Z,21.4
2022-12-07T01:13:29.322Z,21.4
2022-12-07T01:14:31.814Z,21.4
2022-12-07T01:15:34.297Z,21.4
2022-12-07T01:16:36.684Z,21.3
2022-12-07T01:17:39.076Z,21.3
2022-12-07T01:18:40.707Z,21.3
2022-12-07T01:19:42.900Z,21.4
2022-12-07T01:20:45.127Z,21.4
2022-12-07T01:21:47.685Z,21.4
2022-12-07T01:22:49.875Z,21.4
2022-12-07T01:23:52.359Z,21.4
2022-12-07T01:24:54.847Z,21.4
2022-12-07T01:25:57.332Z,21.4
2022-12-07T01:26:59.547Z,21.4
2022-12-07T01:28:01.737Z,21.4
2022-12-07T01:29:04.220Z,21.4
2022-12-07T01:30:06.422Z,21.4
2022-12-07T01:31:09.217Z,21.5
2022-12-07T01:32:11.938Z,21.4
2022-12-07T01:33:14.450Z,21.5
2022-12-07T01:34:16.657Z,21.4
2022-12-07T01:35:19.129Z,21.4
2022-12-07T01:36:21.357Z,21.4
2022-12-07T01:37:23.901Z,21.4
2022-12-07T01:38:25.821Z,21.4
2022-12-07T01:39:28.297Z,21.4
2022-12-07T01:40:30.500Z,21.4
2022-12-07T01:41:32.995Z,21.4
2022-12-07T01:42:35.494Z,21.4
2022-12-07T01:43:37.972Z,21.4
2022-12-07T01:44:39.899Z,21.4
2022-12-07T01:45:42.442Z,21.4
2022-12-07T01:46:45.144Z,21.4
2022-12-07T01:47:47.353Z,21.4
2022-12-07T01:48:49.619Z,21.4
2022-12-07T01:49:51.828Z,21.4
2022-12-07T01:50:54.297Z,21.4
2022-12-07T01:51:56.823Z,21.5
2022-12-07T01:52:59.377Z,21.5
2022-12-07T01:54:01.306Z,21.5
2022-12-07T01:55:03.777Z,21.5
2022-12-07T01:56:06.257Z,21.5
2022-12-07T01:57:08.729Z,21.5
2022-12-07T01:58:11.232Z,21.5
2022-12-07T01:59:13.431Z,21.5
2022-12-07T02:00:15.660Z,21.5
2022-12-07T02:01:18.120Z,21.5
2022-12-07T02:02:20.717Z,21.5
2022-12-07T02:03:23.183Z,21.5
2022-12-07T02:04:25.389Z,21.4
2022-12-07T02:05:27.876Z,21.4
2022-12-07T02:06:30.089Z,21.4
2022-12-07T02:07:32.293Z,21.4
2022-12-07T02:08:34.829Z,21.4
2022-12-07T02:09:37.028Z,21.4
2022-12-07T02:10:39.228Z,21.4
2022-12-07T02:11:41.424Z,21.4
2022-12-07T02:12:43.644Z,21.5
2022-12-07T02:13:45.549Z,21.5
2022-12-07T02:14:48.026Z,21.5
2022-12-07T02:15:50.569Z,21.5
2022-12-07T02:16:53.335Z,21.5
2022-12-07T02:17:55.826Z,21.5
2022-12-07T02:18:58.305Z,21.5
2022-12-07T02:20:01.858Z,21.5
2022-12-07T02:21:04.968Z,21.5
2022-12-07T02:22:06.882Z,21.5
2022-12-07T02:23:09.373Z,21.5
2022-12-07T02:24:11.632Z,21.5
2022-12-07T02:25:13.839Z,21.5
2022-12-07T02:26:16.076Z,21.5
2022-12-07T02:27:18.551Z,21.5
2022-12-07T02:28:21.023Z,21.5
2022-12-07T02:29:23.508Z,21.5
2022-12-07T02:30:25.704Z,21.4
2022-12-07T02:31:28.387Z,21.4
2022-12-07T02:32:31.058Z,21.4
2022-12-07T02:33:33.005Z,21.4
2022-12-07T02:34:35.482Z,21.4
2022-12-07T02:35:37.685Z,21.5
2022-12-07T02:36:39.606Z,21.5
2022-12-07T02:37:41.802Z,21.5
2022-12-07T02:38:44.013Z,21.5
2022-12-07T02:39:46.550Z,21.5
2022-12-07T02:40:49.036Z,21.5
2022-12-07T02:41:51.247Z,21.5
2022-12-07T02:42:53.715Z,21.5
2022-12-07T02:43:55.933Z,21.5
2022-12-07T02:44:58.414Z,21.5
2022-12-07T02:46:01.036Z,21.6
2022-12-07T02:47:03.738Z,21.5
2022-12-07T02:48:05.929Z,21.6
2022-12-07T02:49:08.533Z,21.5
2022-12-07T02:50:11.012Z,21.5
2022-12-07T02:51:13.511Z,21.5
2022-12-07T02:52:15.702Z,21.5
2022-12-07T02:53:18.301Z,21.5
2022-12-07T02:54:20.801Z,21.5
2022-12-07T02:55:23.334Z,21.5
2022-12-07T02:56:25.536Z,21.5
2022-12-07T02:57:28.020Z,21.5
2022-12-07T02:58:30.224Z,21.5
2022-12-07T02:59:32.131Z,21.5
2022-12-07T03:00:34.323Z,21.5
2022-12-07T03:01:36.434Z,21.5
2022-12-07T03:02:39.163Z,21.5
2022-12-07T03:03:41.816Z,21.5
2022-12-07T03:04:43.733Z,21.5
2022-12-07T03:05:46.214Z,21.5
2022-12-07T03:06:48.715Z,21.6
2022-12-07T03:07:51.474Z,21.6
2022-12-07T03:08:54.117Z,21.6
2022-12-07T03:09:56.619Z,21.6
2022-12-07T03:10:59.159Z,21.6
2022-12-07T03:12:01.378Z,21.6
2022-12-07T03:13:03.863Z,21.6
2022-12-07T03:14:06.360Z,21.6
2022-12-07T03:15:08.558Z,21.6
2022-12-07T03:16:11.239Z,21.6
2022-12-07T03:17:13.946Z,21.5
2022-12-07T03:18:16.441Z,21.5
2022-12-07T03:19:18.665Z,21.5
2022-12-07T03:20:20.924Z,21.5
2022-12-07T03:21:23.410Z,21.5
2022-12-07T03:22:25.622Z,21.5
2022-12-07T03:23:27.807Z,21.5
2022-12-07T03:24:29.730Z,21.5
2022-12-07T03:25:31.683Z,21.5
2022-12-07T03:26:34.249Z,21.5
2022-12-07T03:27:36.170Z,21.5
2022-12-07T03:28:38.376Z,21.5
2022-12-07T03:29:40.850Z,21.5
2022-12-07T03:30:42.957Z,21.5
2022-12-07T03:31:45.906Z,21.5
2022-12-07T03:32:48.397Z,21.5
2022-12-07T03:33:50.885Z,21.5
2022-12-07T03:34:53.076Z,21.5
2022-12-07T03:35:55.570Z,21.5
2022-12-07T03:36:58.036Z,21.6
2022-12-07T03:38:00.250Z,21.6
2022-12-07T03:39:01.881Z,21.5
2022-12-07T03:40:05.069Z,21.5
2022-12-07T03:41:07.721Z,21.5
2022-12-07T03:42:10.272Z,21.5
2022-12-07T03:43:12.477Z,21.5
2022-12-07T03:44:14.966Z,21.5
2022-12-07T03:45:17.433Z,21.5
2022-12-07T03:46:20.608Z,21.5
2022-12-07T03:47:23.341Z,21.5
2022-12-07T03:48:25.566Z,21.5
2022-12-07T03:49:27.782Z,21.5
2022-12-07T03:50:29.983Z,21.5
2022-12-07T03:51:32.173Z,21.5
2022-12-07T03:52:34.654Z,21.5
2022-12-07T03:53:36.885Z,21.5
2022-12-07T03:54:38.801Z,21.5
2022-12-07T03:55:41.278Z,21.5
2022-12-07T03:56:43.784Z,21.5
2022-12-07T03:57:46.313Z,21.5
2022-12-07T03:58:48.496Z,21.6
2022-12-07T03:59:50.970Z,21.6
2022-12-07T04:00:53.156Z,21.6
2022-12-07T04:01:55.655Z,21.6
2022-12-07T04:02:58.095Z,21.6
2022-12-07T04:04:00.502Z,21.6
2022-12-07T04:05:02.983Z,21.5
2022-12-07T04:06:05.203Z,21.5
2022-12-07T04:07:07.138Z,21.5
2022-12-07T04:08:09.258Z,21.5
2022-12-07T04:09:11.693Z,21.5
2022-12-07T04:10:14.178Z,21.5
2022-12-07T04:11:16.673Z,21.5
2022-12-07T04:12:19.169Z,21.5
2022-12-07T04:13:21.691Z,21.5
2022-12-07T04:14:24.171Z,21.5
2022-12-07T04:15:26.645Z,21.4
2022-12-07T04:16:29.231Z,21.4
2022-12-07T04:17:31.935Z,21.4
2022-12-07T04:18:34.427Z,21.4
2022-12-07T04:19:37.061Z,21.4
2022-12-07T04:20:40.148Z,21.4
2022-12-07T04:21:42.347Z,21.4
2022-12-07T04:22:44.549Z,21.4
2022-12-07T04:23:47.021Z,21.4
2022-12-07T04:24:49.513Z,21.4
2022-12-07T04:25:52.003Z,21.4
2022-12-07T04:26:54.498Z,21.4
2022-12-07T04:27:56.722Z,21.3
2022-12-07T04:30:06.014Z,21.3
2022-12-07T04:31:08.274Z,21.3
2022-12-07T04:32:10.903Z,21.3
2022-12-07T04:33:13.124Z,21.3
2022-12-07T04:34:15.323Z,21.3
2022-12-07T04:35:17.528Z,21.3
2022-12-07T04:36:20.055Z,21.3
2022-12-07T04:37:21.691Z,21.3
2022-12-07T04:38:24.195Z,21.3
2022-12-07T04:39:26.392Z,21.3
2022-12-07T04:40:28.615Z,21.3
2022-12-07T04:41:31.092Z,21.3
2022-12-07T04:42:32.751Z,21.3
2022-12-07T04:43:34.949Z,21.3
2022-12-07T04:44:37.492Z,21.3
2022-12-07T04:45:39.673Z,21.3
2022-12-07T04:46:42.461Z,21.3
2022-12-07T04:47:45.225Z,21.3
2022-12-07T04:48:47.706Z,21.3
2022-12-07T04:49:49.901Z,21.3
2022-12-07T04:50:52.376Z,21.3
2022-12-07T04:51:54.847Z,21.3
2022-12-07T04:52:57.073Z,21.3
2022-12-07T04:53:59.268Z,21.3
2022-12-07T04:55:01.484Z,21.3
2022-12-07T04:56:03.682Z,21.2
2022-12-07T04:57:05.615Z,21.2
2022-12-07T04:58:08.105Z,21.2
2022-12-07T04:59:10.602Z,21.2
2022-12-07T05:00:13.250Z,21.2
2022-12-07T05:01:15.997Z,21.2
2022-12-07T05:02:18.707Z,21.2
2022-12-07T05:03:21.402Z,21.2
2022-12-07T05:04:23.893Z,21.2
2022-12-07T05:05:26.114Z,21.2
2022-12-07T05:06:28.009Z,21.2
2022-12-07T05:07:30.499Z,21.2
2022-12-07T05:08:32.687Z,21.2
2022-12-07T05:09:34.884Z,21.2
2022-12-07T05:10:37.444Z,21.2
2022-12-07T05:11:39.806Z,21.2
2022-12-07T05:12:42.228Z,21.2
2022-12-07T05:13:44.716Z,21.2
2022-12-07T05:14:47.220Z,21.2
2022-12-07T05:15:49.911Z,21.2
2022-12-07T05:16:52.881Z,21.2
2022-12-07T05:17:55.167Z,21.2
2022-12-07T05:18:57.640Z,21.2
2022-12-07T05:20:01.284Z,21.2
2022-12-07T05:21:04.593Z,21.2
2022-12-07T05:22:07.084Z,21.2
2022-12-07T05:23:09.566Z,21.2
2022-12-07T05:24:12.035Z,21.2
2022-12-07T05:25:14.243Z,21.2
2022-12-07T05:26:16.712Z,21.2
2022-12-07T05:27:18.927Z,21.2
2022-12-07T05:28:21.418Z,21.2
2022-12-07T05:29:24.227Z,21.2
2022-12-07T05:30:26.731Z,21.2
2022-12-07T05:31:29.524Z,21.2
2022-12-07T05:32:31.959Z,21.2
2022-12-07T05:33:34.158Z,21.2
2022-12-07T05:34:36.378Z,21.2
2022-12-07T05:35:38.892Z,21.2
2022-12-07T05:36:41.089Z,21.2
2022-12-07T05:37:43.308Z,21.2
2022-12-07T05:38:45.780Z,21.2
2022-12-07T05:39:48.254Z,21.2
2022-12-07T05:40:50.446Z,21.2
2022-12-07T05:41:52.919Z,21.2
2022-12-07T05:43:01.296Z,21.2
2022-12-07T05:44:03.021Z,21.2
2022-12-07T05:45:05.206Z,21.2
2022-12-07T05:46:07.385Z,21.2
2022-12-07T05:47:10.292Z,21.2
2022-12-07T05:48:12.494Z,21.2
2022-12-07T05:49:14.692Z,21.2
2022-12-07T05:50:16.600Z,21.1
2022-12-07T05:51:19.074Z,21.1
2022-12-07T05:52:21.560Z,21.1
2022-12-07T05:53:24.297Z,21.1
2022-12-07T05:54:26.823Z,21.1
2022-12-07T05:55:28.533Z,21.1
2022-12-07T05:56:31.032Z,21.1
2022-12-07T05:57:33.545Z,21.1
2022-12-07T05:58:35.785Z,21.1
2022-12-07T05:59:37.965Z,21.1
2022-12-07T06:00:40.451Z,21.1
2022-12-07T06:01:42.938Z,21.1
2022-12-07T06:02:46.224Z,21.1
2022-12-07T06:03:49.227Z,21.1
2022-12-07T06:04:51.442Z,21.1
2022-12-07T06:05:53.798Z,21.1
2022-12-07T06:06:56.134Z,21.1
2022-12-07T06:09:03.049Z,21.1
2022-12-07T06:10:05.762Z,21.1
2022-12-07T06:11:08.237Z,21.1
2022-12-07T06:12:10.447Z,21.1
2022-12-07T06:13:12.658Z,21.1
2022-12-07T06:14:14.869Z,21.1
2022-12-07T06:15:17.348Z,21.1
2022-12-07T06:16:19.769Z,21.1
2022-12-07T06:17:22.475Z,21.1
2022-12-07T06:18:25.037Z,21.1
2022-12-07T06:19:27.536Z,21.1
2022-12-07T06:20:29.733Z,21.1
2022-12-07T06:21:32.222Z,21.1
2022-12-07T06:22:34.428Z,21.1
2022-12-07T06:23:36.634Z,21.1
2022-12-07T06:24:38.560Z,21.1
2022-12-07T06:25:40.780Z,21.1
2022-12-07T06:26:43.271Z,21.1
2022-12-07T06:27:44.943Z,21.1
2022-12-07T06:28:47.430Z,21.1
2022-12-07T06:29:49.929Z,21.1
2022-12-07T06:30:52.412Z,21.1
2022-12-07T06:31:55.100Z,21.1
2022-12-07T06:32:57.447Z,21.1
2022-12-07T06:33:59.992Z,21.1
2022-12-07T06:35:02.212Z,21.1
2022-12-07T06:36:04.417Z,21.1
2022-12-07T06:37:06.887Z,21.1
2022-12-07T06:38:09.999Z,21.1
2022-12-07T06:39:12.465Z,21.1
2022-12-07T06:40:14.390Z,21.1
2022-12-07T06:41:16.862Z,21.1
2022-12-07T06:42:18.798Z,21.1
2022-12-07T06:43:21.010Z,21.1
2022-12-07T06:44:23.086Z,21.1
2022-12-07T06:45:25.584Z,21.1
2022-12-07T06:46:28.216Z,21.1
2022-12-07T06:48:35.933Z,21.1
2022-12-07T06:49:38.577Z,21.1
2022-12-07T06:50:41.055Z,21.1
2022-12-07T06:51:43.524Z,21.1
2022-12-07T06:52:46.024Z,21.1
2022-12-07T06:53:47.996Z,21.1
2022-12-07T06:54:50.223Z,21.1
2022-12-07T06:55:52.698Z,21.1
2022-12-07T06:56:55.175Z,21.1
2022-12-07T06:57:57.654Z,21.1
2022-12-07T06:59:00.142Z,21.1
2022-12-07T07:00:03.581Z,21.1
2022-12-07T07:01:06.841Z,21.1
2022-12-07T07:02:09.446Z,21.1
2022-12-07T07:03:11.895Z,21.1
2022-12-07T07:04:13.863Z,21.1
2022-12-07T07:05:16.409Z,21.1
2022-12-07T07:06:18.630Z,21.1
2022-12-07T07:07:20.813Z,21.1
2022-12-07T07:08:24.961Z,21.1
2022-12-07T07:09:27.248Z,21.1
2022-12-07T07:10:29.938Z,21.1
2022-12-07T07:11:32.146Z,21.1
2022-12-07T07:12:34.349Z,21.1
2022-12-07T07:13:36.837Z,21.1
2022-12-07T07:14:39.034Z,21.1
2022-12-07T07:15:41.516Z,21.1
2022-12-07T07:16:44.059Z,21.1
2022-12-07T07:17:46.576Z,21.1
2022-12-07T07:18:48.799Z,21.1
2022-12-07T07:19:51.324Z,21.1
2022-12-07T07:20:53.888Z,21.1
2022-12-07T07:21:56.363Z,21.1
2022-12-07T07:22:58.278Z,21.1
2022-12-07T07:24:00.772Z,21.1
2022-12-07T07:25:02.965Z,21.1
2022-12-07T07:26:05.471Z,21.1
2022-12-07T07:27:07.973Z,21.1
2022-12-07T07:28:10.176Z,21.1
2022-12-07T07:29:12.657Z,21.1
2022-12-07T07:30:14.865Z,21.1
2022-12-07T07:31:16.955Z,21.1
2022-12-07T07:32:19.674Z,21.1
2022-12-07T07:33:22.156Z,21.1
2022-12-07T07:34:24.664Z,21.1
2022-12-07T07:35:26.916Z,21.1
2022-12-07T07:36:29.449Z,21.1
2022-12-07T07:37:31.398Z,21.1
2022-12-07T07:38:33.588Z,21.1
2022-12-07T07:39:36.068Z,21.1
2022-12-07T07:40:38.307Z,21.1
2022-12-07T07:41:39.735Z,21.1
2022-12-07T07:42:42.232Z,21.1
2022-12-07T07:43:44.728Z,21
2022-12-07T07:44:47.206Z,21.1
2022-12-07T07:45:49.289Z,21.1
2022-12-07T07:46:51.070Z,21.1
2022-12-07T07:47:53.593Z,21.1
2022-12-07T07:48:56.084Z,21.1
2022-12-07T07:49:58.574Z,21
2022-12-07T07:51:00.778Z,21.1
2022-12-07T07:52:03.315Z,21.1
2022-12-07T07:53:05.821Z,21.1
2022-12-07T07:54:08.323Z,21.1
2022-12-07T07:55:09.968Z,21.1
2022-12-07T07:56:12.175Z,21.1
2022-12-07T07:57:14.106Z,21.1
2022-12-07T07:58:16.312Z,21
2022-12-07T07:59:18.831Z,21.1
2022-12-07T08:00:21.039Z,21.1
2022-12-07T08:01:23.382Z,21
2022-12-07T08:02:25.593Z,21
2022-12-07T08:03:28.112Z,21.1
2022-12-07T08:04:30.059Z,21.1
2022-12-07T08:05:31.933Z,21.1
2022-12-07T08:06:33.875Z,21
2022-12-07T08:07:36.628Z,21.1
2022-12-07T08:08:39.395Z,21.1
2022-12-07T08:09:41.640Z,21.1
2022-12-07T08:10:43.858Z,21.1
2022-12-07T08:11:46.344Z,21.1
2022-12-07T08:12:48.836Z,21
2022-12-07T08:13:51.042Z,21.1
2022-12-07T08:14:53.278Z,21.1
2022-12-07T08:15:55.883Z,21
2022-12-07T08:16:58.034Z,21.1
2022-12-07T08:17:59.988Z,21.1
2022-12-07T08:19:02.203Z,21
2022-12-07T08:20:05.952Z,21
2022-12-07T08:21:08.022Z,21
2022-12-07T08:22:10.249Z,21
2022-12-07T08:23:13.118Z,21
2022-12-07T08:24:15.040Z,21
2022-12-07T08:25:17.282Z,21
2022-12-07T08:26:19.569Z,21
2022-12-07T08:27:21.796Z,21
2022-12-07T08:28:24.319Z,21
2022-12-07T08:29:26.820Z,21
2022-12-07T08:30:29.327Z,21
2022-12-07T08:31:31.789Z,21
2022-12-07T08:32:34.473Z,21
2022-12-07T08:33:36.708Z,21
2022-12-07T08:34:39.198Z,21
2022-12-07T08:35:41.414Z,21
2022-12-07T08:36:43.927Z,21
2022-12-07T08:37:46.172Z,21
2022-12-07T08:39:53.716Z,21
2022-12-07T08:40:55.932Z,21
2022-12-07T08:41:58.148Z,21
2022-12-07T08:43:00.355Z,21
2022-12-07T08:44:02.652Z,21
2022-12-07T08:45:05.138Z,21
2022-12-07T08:46:07.838Z,21
2022-12-07T08:47:10.630Z,21
2022-12-07T08:48:12.877Z,21
2022-12-07T08:49:15.085Z,21
2022-12-07T08:50:17.598Z,21
2022-12-07T08:51:19.787Z,21
2022-12-07T08:52:21.732Z,21
2022-12-07T08:53:23.992Z,21
2022-12-07T08:54:26.539Z,21
2022-12-07T08:55:29.037Z,21
2022-12-07T08:56:31.298Z,21
2022-12-07T08:57:33.240Z,21
2022-12-07T08:58:35.465Z,21
2022-12-07T08:59:37.378Z,21
2022-12-07T09:00:39.599Z,21
2022-12-07T09:01:42.360Z,21
2022-12-07T09:02:45.202Z,21
2022-12-07T09:03:47.441Z,21
2022-12-07T09:04:49.668Z,21
2022-12-07T09:05:52.553Z,21
2022-12-07T09:06:55.615Z,21
2022-12-07T09:07:58.411Z,21
2022-12-07T09:09:00.913Z,21
2022-12-07T09:10:04.567Z,21
2022-12-07T09:11:07.404Z,21
2022-12-07T09:12:09.958Z,21
2022-12-07T09:13:12.194Z,21
2022-12-07T09:14:14.405Z,21
2022-12-07T09:15:16.910Z,21
2022-12-07T09:16:19.392Z,21
2022-12-07T09:17:21.891Z,21
2022-12-07T09:18:24.115Z,21
2022-12-07T09:19:26.052Z,21
2022-12-07T09:20:29.572Z,21
2022-12-07T09:21:31.644Z,21
2022-12-07T09:22:33.853Z,21
2022-12-07T09:23:36.076Z,21
2022-12-07T09:24:38.319Z,21
2022-12-07T09:25:41.221Z,21
2022-12-07T09:26:43.153Z,21
2022-12-07T09:27:45.372Z,21
2022-12-07T09:28:47.299Z,21
2022-12-07T09:29:49.485Z,21
2022-12-07T09:31:56.618Z,21
2022-12-07T09:32:59.031Z,21
2022-12-07T09:34:02.102Z,21
2022-12-07T09:35:04.730Z,21
2022-12-07T09:36:07.231Z,21
2022-12-07T09:37:09.748Z,21
2022-12-07T09:38:11.965Z,21
2022-12-07T09:39:13.876Z,21
2022-12-07T09:40:16.107Z,21
2022-12-07T09:41:18.653Z,21
2022-12-07T09:42:21.142Z,21
2022-12-07T09:43:23.635Z,21
2022-12-07T09:44:25.884Z,21
2022-12-07T09:45:28.095Z,21
2022-12-07T09:46:30.793Z,21
2022-12-07T09:47:33.005Z,21
2022-12-07T09:48:35.588Z,21
2022-12-07T09:49:37.527Z,21
2022-12-07T09:50:39.722Z,21
2022-12-07T09:51:41.939Z,21
2022-12-07T09:52:44.482Z,21
2022-12-07T09:53:46.696Z,21
2022-12-07T09:54:48.914Z,21
2022-12-07T09:55:50.612Z,21
2022-12-07T09:56:52.925Z,21
2022-12-07T09:57:54.849Z,21
2022-12-07T09:58:57.072Z,21
2022-12-07T09:59:59.551Z,21
2022-12-07T10:01:01.468Z,21
2022-12-07T10:02:03.900Z,21
2022-12-07T10:03:06.595Z,21
2022-12-07T10:04:08.558Z,21
2022-12-07T10:05:11.021Z,21
2022-12-07T10:06:13.550Z,21
2022-12-07T10:07:15.785Z,21
2022-12-07T10:08:18.593Z,21
2022-12-07T10:09:21.289Z,21
2022-12-07T10:10:23.222Z,21
2022-12-07T10:11:25.465Z,21
2022-12-07T10:12:27.742Z,21
2022-12-07T10:13:29.952Z,21
2022-12-07T10:15:36.867Z,21
2022-12-07T10:16:39.347Z,21
2022-12-07T10:17:42.376Z,21
2022-12-07T10:18:44.630Z,21
2022-12-07T10:19:46.558Z,21
2022-12-07T10:20:49.047Z,21
2022-12-07T10:21:51.275Z,21
2022-12-07T10:22:53.226Z,21
2022-12-07T10:23:55.451Z,21
2022-12-07T10:24:57.648Z,21
2022-12-07T10:25:59.602Z,21
2022-12-07T10:27:01.844Z,21
2022-12-07T10:28:04.390Z,21
2022-12-07T10:29:06.858Z,21
2022-12-07T10:30:09.081Z,21
2022-12-07T10:31:11.370Z,21
2022-12-07T10:32:13.655Z,21
2022-12-07T10:33:15.920Z,21
2022-12-07T10:34:18.487Z,21
2022-12-07T10:35:21.002Z,21
2022-12-07T10:36:22.689Z,21
2022-12-07T10:37:25.181Z,21
2022-12-07T10:38:27.103Z,21
2022-12-07T10:39:29.624Z,21
2022-12-07T10:40:32.128Z,21
2022-12-07T10:41:34.621Z,21
2022-12-07T10:42:37.126Z,21
2022-12-07T10:43:39.674Z,21
2022-12-07T10:44:42.048Z,21
2022-12-07T10:46:50.196Z,21
2022-12-07T10:47:52.630Z,21
2022-12-07T10:48:54.849Z,21
2022-12-07T10:49:57.334Z,21
2022-12-07T10:50:59.824Z,21
2022-12-07T10:52:01.740Z,21
2022-12-07T10:53:03.947Z,21
2022-12-07T10:54:06.428Z,21
2022-12-07T10:55:08.927Z,21
2022-12-07T10:56:11.406Z,21
2022-12-07T10:57:13.884Z,21
2022-12-07T10:58:16.412Z,21
2022-12-07T10:59:19.171Z,21
2022-12-07T11:00:21.693Z,21
2022-12-07T11:01:24.494Z,21
2022-12-07T11:02:27.171Z,21
2022-12-07T11:03:29.952Z,21
2022-12-07T11:04:32.472Z,21
2022-12-07T11:05:34.135Z,21
2022-12-07T11:06:36.349Z,21
2022-12-07T11:07:39.118Z,21
2022-12-07T11:08:41.538Z,21
2022-12-07T11:10:49.060Z,21
2022-12-07T11:11:51.559Z,21
2022-12-07T11:12:54.057Z,21
2022-12-07T11:13:56.566Z,21
2022-12-07T11:14:59.145Z,21
2022-12-07T11:16:01.647Z,21
2022-12-07T11:17:04.054Z,21
2022-12-07T11:18:06.571Z,21
2022-12-07T11:19:08.262Z,21
2022-12-07T11:20:10.185Z,21
2022-12-07T11:21:12.120Z,21
2022-12-07T11:22:14.621Z,21
2022-12-07T11:23:17.110Z,21
2022-12-07T11:24:19.313Z,21
2022-12-07T11:26:26.630Z,21
2022-12-07T11:27:29.186Z,21
2022-12-07T11:28:31.063Z,21
2022-12-07T11:29:33.564Z,21
2022-12-07T11:30:36.114Z,21
2022-12-07T11:31:38.738Z,21
2022-12-07T11:32:41.111Z,21
2022-12-07T11:33:43.594Z,21
2022-12-07T11:34:45.536Z,21
2022-12-07T11:35:48.013Z,21
2022-12-07T11:36:50.503Z,21
2022-12-07T11:37:52.415Z,20.9
2022-12-07T11:38:54.891Z,21
2022-12-07T11:39:57.363Z,20.9
2022-12-07T11:40:59.886Z,21
2022-12-07T11:42:02.128Z,21
2022-12-07T11:43:04.065Z,20.9
2022-12-07T11:44:05.435Z,20.9
2022-12-07T11:45:07.668Z,20.9
2022-12-07T11:46:10.336Z,20.9
2022-12-07T11:47:12.983Z,20.9
2022-12-07T11:48:15.422Z,20.9
2022-12-07T11:49:17.933Z,20.9
2022-12-07T11:50:21.651Z,20.9
2022-12-07T11:52:29.933Z,20.9
2022-12-07T11:53:32.139Z,20.9
2022-12-07T11:54:34.402Z,20.9
2022-12-07T11:55:36.592Z,20.9
2022-12-07T11:56:38.792Z,20.9
2022-12-07T11:57:41.219Z,20.9
2022-12-07T11:58:43.700Z,20.9
2022-12-07T11:59:46.184Z,20.9
2022-12-07T12:00:48.136Z,20.9
2022-12-07T12:01:50.806Z,20.9
2022-12-07T12:02:53.123Z,20.9
2022-12-07T12:03:55.906Z,20.9
2022-12-07T12:04:58.273Z,20.9
2022-12-07T12:06:00.471Z,20.9
2022-12-07T12:10:17.943Z,20.9
2022-12-07T12:11:20.435Z,20.9
2022-12-07T12:14:33.151Z,20.9
2022-12-07T12:15:37.725Z,20.9
2022-12-07T12:16:40.461Z,20.9
2022-12-07T12:17:43.367Z,20.9
2022-12-07T12:18:45.584Z,20.9
2022-12-07T12:19:48.119Z,20.9
2022-12-07T12:20:49.778Z,20.9
2022-12-07T12:22:57.259Z,20.9
2022-12-07T12:23:59.474Z,20.9
2022-12-07T12:25:02.699Z,20.9
2022-12-07T12:26:05.778Z,20.9
2022-12-07T12:27:07.918Z,20.9
2022-12-07T12:28:09.868Z,20.9
2022-12-07T12:29:11.782Z,20.9
2022-12-07T12:30:14.305Z,20.9
2022-12-07T12:31:16.832Z,20.9
2022-12-07T12:32:20.112Z,20.9
2022-12-07T12:33:23.005Z,20.9
2022-12-07T12:34:25.217Z,20.9
2022-12-07T12:35:27.470Z,20.9
2022-12-07T12:36:30.145Z,20.9
2022-12-07T12:37:32.610Z,20.9
2022-12-07T12:38:34.278Z,20.9
2022-12-07T12:39:36.254Z,20.9
2022-12-07T12:40:38.755Z,20.9
2022-12-07T12:41:40.965Z,20.9
2022-12-07T12:42:43.461Z,20.9
2022-12-07T12:43:45.944Z,20.9
2022-12-07T12:44:48.449Z,20.9
2022-12-07T12:45:51.151Z,20.9
2022-12-07T12:46:53.583Z,20.9
2022-12-07T12:47:56.109Z,20.9
2022-12-07T12:48:58.653Z,20.9
2022-12-07T12:50:00.590Z,20.9
2022-12-07T12:51:02.803Z,20.9
2022-12-07T12:52:05.008Z,20.9
2022-12-07T12:53:07.498Z,20.9
2022-12-07T12:54:09.460Z,20.9
2022-12-07T12:55:11.947Z,20.9
2022-12-07T12:56:13.899Z,20.9
2022-12-07T12:57:16.404Z,20.9
2022-12-07T12:58:18.904Z,20.9
2022-12-07T12:59:21.387Z,20.9
2022-12-07T13:00:23.358Z,20.9
2022-12-07T13:01:26.127Z,20.9
2022-12-07T13:02:28.755Z,20.9
2022-12-07T13:03:31.309Z,20.9
2022-12-07T13:04:33.883Z,20.9
2022-12-07T13:05:36.107Z,20.9
2022-12-07T13:06:38.042Z,20.9
2022-12-07T13:07:40.481Z,20.9
2022-12-07T13:08:42.901Z,20.9
2022-12-07T13:09:45.151Z,20.9
2022-12-07T13:10:47.655Z,20.9
2022-12-07T13:11:49.334Z,20.9
2022-12-07T13:12:51.809Z,20.9
2022-12-07T13:13:54.033Z,20.9
2022-12-07T13:14:56.525Z,20.9
2022-12-07T13:15:59.022Z,20.9
2022-12-07T13:17:01.551Z,20.9
2022-12-07T13:18:03.740Z,20.9
2022-12-07T13:19:05.977Z,20.9
2022-12-07T13:21:13.234Z,20.9
2022-12-07T13:22:15.972Z,20.9
2022-12-07T13:23:18.464Z,20.9
2022-12-07T13:24:20.674Z,20.9
2022-12-07T13:25:23.176Z,20.9
2022-12-07T13:26:25.682Z,20.9
2022-12-07T13:27:28.174Z,20.9
2022-12-07T13:28:30.371Z,20.9
2022-12-07T13:29:32.281Z,20.9
2022-12-07T13:30:34.690Z,20.9
2022-12-07T13:31:37.427Z,20.9
2022-12-07T13:32:39.663Z,20.9
2022-12-07T13:33:42.158Z,20.9
2022-12-07T13:34:44.660Z,20.9
2022-12-07T13:35:47.254Z,20.9
2022-12-07T13:36:49.484Z,20.9
2022-12-07T13:37:51.143Z,20.9
2022-12-07T13:38:53.640Z,20.9
2022-12-07T13:39:55.325Z,20.9
2022-12-07T13:40:57.848Z,20.9
2022-12-07T13:42:00.080Z,20.9
2022-12-07T13:43:02.592Z,20.9
2022-12-07T13:44:04.826Z,20.9
2022-12-07T13:45:07.386Z,20.9
2022-12-07T13:46:10.109Z,20.9
2022-12-07T13:47:12.710Z,20.9
2022-12-07T13:48:14.951Z,20.9
2022-12-07T13:49:17.169Z,20.9
2022-12-07T13:50:19.673Z,20.9
2022-12-07T13:51:21.946Z,20.9
2022-12-07T13:52:24.447Z,20.9
2022-12-07T13:53:26.417Z,20.9
2022-12-07T13:54:28.372Z,20.9
2022-12-07T13:55:30.477Z,20.9
2022-12-07T13:56:32.737Z,20.9
2022-12-07T13:57:34.951Z,20.9
2022-12-07T13:58:36.603Z,20.9
2022-12-07T13:59:39.099Z,20.9
2022-12-07T14:00:41.599Z,20.9
2022-12-07T14:01:44.342Z,20.9
2022-12-07T14:02:47.440Z,20.9
2022-12-07T14:03:50.144Z,20.9
2022-12-07T14:04:52.675Z,20.9
2022-12-07T14:05:54.363Z,20.9
2022-12-07T14:06:56.953Z,20.9
2022-12-07T14:07:59.460Z,20.9
2022-12-07T14:09:02.221Z,20.9
2022-12-07T14:10:04.167Z,20.9
2022-12-07T14:11:06.653Z,20.9
2022-12-07T14:12:08.852Z,20.9
2022-12-07T14:13:11.053Z,20.9
2022-12-07T14:14:13.552Z,20.9
2022-12-07T14:15:15.776Z,20.9
2022-12-07T14:16:18.380Z,20.9
2022-12-07T14:17:20.992Z,20.9
2022-12-07T14:18:23.565Z,20.9
2022-12-07T14:19:25.820Z,20.9
2022-12-07T14:20:28.321Z,20.9
2022-12-07T14:21:30.611Z,20.9
2022-12-07T14:22:33.203Z,20.9
2022-12-07T14:23:35.682Z,20.9